KEFD/EFD METAR and TAF weather

Enter ICAO airport designator
Station Type Date Time Source
KEFD METAR 2022/01/25 03:50 UTC NOAA

KEFD 250350Z 36009KT 7SM OVC007 09/08 A2988


Station Type Date Time Source
KEFD Decoded METAR 2022/01/25 03:50 UTC NOAA

Houston / Ellington, TX, United States (KEFD) 29-36N 095-10W
Jan 24, 2022 - 10:50 PM EST / 2022.01.25 0350 UTC
Wind: from the N (360 degrees) at 10 MPH (9 KT):0
Visibility: 7 mile(s):0
Sky conditions: overcast
Temperature: 48 F (9 C)
Dew Point: 46 F (8 C)
Relative Humidity: 93%
Pressure (altimeter): 29.88 in. Hg (1011 hPa)
ob: KEFD 250350Z 36009KT 7SM OVC007 09/08 A2988
cycle: 4

Station Type Date Time Source
KEFD TAF 2022/01/25 04:02 UTC NOAA

TAF KEFD 250400Z 2504/2610 02006KT 8000 BR OVC005 QNH2985INS
BECMG 2507/2508 35006KT 9999 NSW OVC005 QNH2987INS
BECMG 2515/2516 02009KT 9999 SCT005 QNH3006INS
BECMG 2520/2521 04010G15KT 9999 OVC010 QNH3004INS TX13/2520Z TN07/2510Z

Example: see airport list